Time;durP1;ratioP1;P1;durP2;ratioP2;P2;SDS_P1;SDS_P2;PMS_P1;PMS_P2;Temp;Humidity;BMP_temperature;BMP_pressure;BME280_temperature;BME280_humidity;BME280_pressure;Samples;Min_cycle;Max_cycle;Signal;HPM_P1;HPM_P2
2022/04/20 00:03:13;;;;;;;7.85;3.20;;;7.90;99.90;;;;;;4859598;29;20149;-88
2022/04/20 00:06:11;;;;;;;4.53;2.95;;;8.00;99.90;;;;;;4874109;29;20053;-87
2022/04/20 00:11:51;;;;;;;5.35;3.30;;;7.80;99.90;;;;;;5659128;23;20035;-89
2022/04/20 00:18:05;;;;;;;8.02;3.00;;;7.70;99.90;;;;;;4868606;29;20051;-88
2022/04/20 00:24:28;;;;;;;5.20;2.83;;;7.60;99.90;;;;;;4879353;29;20073;-86
2022/04/20 00:30:23;;;;;;;6.63;3.03;;;8.00;99.90;;;;;;4864653;29;20065;-87
2022/04/20 00:37:15;;;;;;;5.32;2.80;;;7.50;99.90;;;;;;4801075;29;20414;-91
2022/04/20 00:39:56;;;;;;;5.45;3.38;;;7.50;99.90;;;;;;4850753;24;20967;-89
2022/04/20 00:49:48;;;;;;;7.25;3.83;;;7.40;99.90;;;;;;4860704;29;20050;-88
2022/04/20 01:35:03;;;;;;;6.63;3.10;;;7.00;99.90;;;;;;5437489;24;20512;-88
2022/04/20 01:52:52;;;;;;;6.28;3.30;;;6.90;99.90;;;;;;5429555;23;20029;31
2022/04/20 01:59:31;;;;;;;7.22;3.47;;;6.90;99.90;;;;;;4909954;24;20042;-90
2022/04/20 02:03:02;;;;;;;5.75;3.20;;;6.80;99.90;;;;;;4843878;29;20042;-90
2022/04/20 02:05:28;;;;;;;6.72;3.05;;;6.70;99.90;;;;;;4841318;29;20062;-91
2022/04/20 02:21:52;;;;;;;;;;;;;;;;;;;;;
2022/04/20 02:25:09;;;;;;;5.63;3.20;;;6.50;99.90;;;;;;4843497;29;20058;-90
2022/04/20 02:28:23;;;;;;;6.20;3.72;;;6.40;99.90;;;;;;4829658;29;20053;-89
2022/04/20 02:31:04;;;;;;;6.85;3.90;;;6.40;99.90;;;;;;4847525;29;20045;-90
2022/04/20 03:13:47;;;;;;;6.07;3.40;;;6.50;99.90;;;;;;4840918;29;20104;-88
2022/04/20 03:23:33;;;;;;;7.03;3.70;;;5.70;99.90;;;;;;5526868;24;20069;-89
2022/04/20 03:29:11;;;;;;;12.48;4.00;;;5.50;99.90;;;;;;4861299;29;20089;-90
2022/04/20 03:43:33;;;;;;;9.98;4.40;;;5.50;99.90;;;;;;4876361;29;20462;-87
2022/04/20 04:19:55;;;;;;;8.13;4.13;;;5.50;99.90;;;;;;4956974;24;19928;-88
2022/04/20 04:23:09;;;;;;;7.30;3.97;;;5.50;99.90;;;;;;5131734;24;20093;-88
2022/04/20 04:25:57;;;;;;;9.15;3.78;;;5.10;99.90;;;;;;4848920;29;20049;-88
2022/04/20 04:29:19;;;;;;;9.13;3.67;;;5.50;99.90;;;;;;4864338;29;20094;-91
2022/04/20 04:53:33;;;;;;;9.70;3.90;;;5.60;99.90;;;;;;5271770;23;19932;-89
2022/04/20 04:56:14;;;;;;;9.65;4.13;;;5.20;99.90;;;;;;4840147;29;20058;-88
2022/04/20 05:17:23;;;;;;;6.70;4.03;;;5.80;99.90;;;;;;4825882;29;20516;-89
2022/04/20 05:19:49;;;;;;;5.35;3.83;;;6.50;99.90;;;;;;4876790;24;20057;-88
2022/04/20 05:22:44;;;;;;;10.45;4.45;;;5.90;99.90;;;;;;4856363;24;20069;-89
2022/04/20 05:25:17;;;;;;;9.50;4.10;;;6.00;99.90;;;;;;4832567;29;20512;-89
2022/04/20 05:27:46;;;;;;;8.10;4.00;;;6.80;99.90;;;;;;4847459;29;20786;-89
2022/04/20 05:30:36;;;;;;;9.90;4.43;;;6.60;99.90;;;;;;4847662;29;20107;-88
2022/04/20 05:44:03;;;;;;;8.07;4.10;;;6.50;99.90;;;;;;4816246;29;20058;-86
2022/04/20 05:46:33;;;;;;;9.85;4.50;;;6.70;99.90;;;;;;4811891;29;20057;-89
2022/04/20 05:49:02;;;;;;;9.65;4.35;;;6.50;99.90;;;;;;4825967;29;20192;-86
2022/04/20 05:51:43;;;;;;;6.40;4.40;;;7.20;99.90;;;;;;4825264;29;20127;-88
2022/04/20 05:54:18;;;;;;;9.07;4.43;;;6.60;99.90;;;;;;4842991;29;20141;-89
2022/04/20 05:57:39;;;;;;;;;;;;;;;;;;;;;
2022/04/20 06:00:30;;;;;;;;;;;;;;;;;;;;;
2022/04/20 06:03:26;;;;;;;6.03;4.30;;;7.40;99.90;;;;;;4826458;29;20632;-89
2022/04/20 06:06:11;;;;;;;8.45;4.18;;;7.00;99.90;;;;;;4816162;29;20183;-91
2022/04/20 06:08:52;;;;;;;8.68;4.03;;;7.00;99.90;;;;;;4808360;29;20050;-88
2022/04/20 06:11:28;;;;;;;;;;;;;;;;;;;;;
2022/04/20 06:14:11;;;;;;;8.23;4.35;;;7.70;99.90;;;;;;4824131;29;20734;-88
2022/04/20 06:16:43;;;;;;;6.07;3.95;;;7.20;99.90;;;;;;4808011;29;20083;-88
2022/04/20 06:19:12;;;;;;;7.93;3.95;;;8.00;99.90;;;;;;4809157;29;20160;-87
2022/04/20 06:22:01;;;;;;;7.63;4.10;;;7.50;99.90;;;;;;4822746;29;20141;-89
2022/04/20 06:25:34;;;;;;;8.15;4.28;;;7.00;99.90;;;;;;4787694;29;20055;-88
2022/04/20 06:28:15;;;;;;;9.40;4.00;;;7.60;99.90;;;;;;4774341;29;20072;-88
2022/04/20 06:31:01;;;;;;;9.27;4.25;;;8.40;99.90;;;;;;4772534;30;20059;-88
2022/04/20 06:34:22;;;;;;;10.15;3.55;;;8.30;99.90;;;;;;4797496;29;20097;-89
2022/04/20 06:40:13;;;;;;;9.27;4.68;;;8.10;99.90;;;;;;4758454;30;20541;-88
2022/04/20 06:43:19;;;;;;;8.20;3.95;;;8.30;99.90;;;;;;4783623;30;20066;-91
2022/04/20 06:59:53;;;;;;;8.82;4.18;;;9.10;99.90;;;;;;4861957;29;20121;-91
2022/04/20 07:02:44;;;;;;;6.28;3.92;;;9.10;99.90;;;;;;4866361;29;20413;-93
2022/04/20 07:05:38;;;;;;;7.82;4.18;;;9.70;99.90;;;;;;4888049;24;20137;-90
2022/04/20 07:08:04;;;;;;;6.47;4.07;;;9.10;99.90;;;;;;4846959;24;20057;-86
2022/04/20 07:13:12;;;;;;;7.32;3.95;;;9.30;99.90;;;;;;4836004;29;20376;-86
2022/04/20 07:15:41;;;;;;;8.73;3.95;;;9.50;99.90;;;;;;4815558;29;20132;-89
2022/04/20 07:18:12;;;;;;;6.63;3.90;;;9.50;99.90;;;;;;4843953;29;20056;-92
2022/04/20 07:20:55;;;;;;;5.43;3.30;;;9.60;99.90;;;;;;4842499;29;20846;-86
2022/04/20 07:27:22;;;;;;;10.85;3.80;;;9.80;99.90;;;;;;5417640;24;20065;-88
2022/04/20 07:31:02;;;;;;;5.45;2.92;;;10.50;99.90;;;;;;4840838;29;20068;-88
2022/04/20 07:43:38;;;;;;;5.57;2.65;;;10.40;99.90;;;;;;4939888;24;20050;-87
2022/04/20 07:52:06;;;;;;;5.55;2.50;;;11.10;99.90;;;;;;4831950;29;20054;-92
2022/04/20 07:54:38;;;;;;;4.82;2.30;;;11.00;99.90;;;;;;4806089;29;20050;-88
2022/04/20 08:00:15;;;;;;;6.20;2.40;;;11.20;99.90;;;;;;4761936;30;20509;-86
2022/04/20 08:02:42;;;;;;;7.22;2.55;;;11.50;99.90;;;;;;4749754;30;20509;-82
2022/04/20 08:05:08;;;;;;;6.00;2.47;;;11.90;99.90;;;;;;4759142;30;20074;-82
2022/04/20 08:07:35;;;;;;;8.38;2.55;;;11.90;99.90;;;;;;4793297;29;20434;-85
2022/04/20 08:10:08;;;;;;;5.47;2.60;;;12.20;99.90;;;;;;4800238;29;20404;-82
2022/04/20 08:12:42;;;;;;;3.80;2.35;;;12.30;99.90;;;;;;4782787;29;20439;-83
2022/04/20 08:15:09;;;;;;;4.15;2.00;;;12.80;99.90;;;;;;4768009;30;20046;-84
2022/04/20 08:17:35;;;;;;;6.22;2.30;;;12.80;99.90;;;;;;4782780;29;20144;-84
2022/04/20 08:20:02;;;;;;;4.85;2.00;;;13.00;99.90;;;;;;4782665;30;20433;-84
2022/04/20 08:22:31;;;;;;;4.78;2.35;;;13.30;99.90;;;;;;4782584;30;20150;-85
2022/04/20 08:24:57;;;;;;;8.93;2.20;;;13.50;99.90;;;;;;4791192;29;20777;-83
2022/04/20 08:27:23;;;;;;;4.22;2.30;;;14.00;99.90;;;;;;4785938;29;20055;-82
2022/04/20 08:29:51;;;;;;;4.60;2.10;;;13.80;99.20;;;;;;4785238;30;20089;-81
2022/04/20 08:32:18;;;;;;;4.20;2.00;;;13.90;99.10;;;;;;4785762;29;20064;-84
2022/04/20 08:34:45;;;;;;;5.05;1.98;;;14.00;97.70;;;;;;4792780;29;20519;-84
2022/04/20 08:37:11;;;;;;;5.05;2.00;;;14.10;97.20;;;;;;4809922;29;20604;-81
2022/04/20 08:39:39;;;;;;;4.10;1.98;;;14.40;98.10;;;;;;4825925;29;20054;-82
2022/04/20 08:42:07;;;;;;;4.05;1.83;;;14.50;97.70;;;;;;4825837;29;20062;-82
2022/04/20 08:44:37;;;;;;;4.20;1.77;;;14.70;96.10;;;;;;4798962;29;20050;-81
2022/04/20 08:47:05;;;;;;;3.92;1.40;;;14.90;96.20;;;;;;4807365;29;20093;-82
2022/04/20 08:49:31;;;;;;;5.05;1.60;;;14.90;94.00;;;;;;4824064;29;20057;-82
2022/04/20 08:54:43;;;;;;;4.20;1.63;;;15.20;92.70;;;;;;4807173;29;20169;-82
2022/04/20 08:57:20;;;;;;;4.45;1.60;;;15.40;93.00;;;;;;4840080;29;20053;-82
2022/04/20 08:59:48;;;;;;;4.18;1.58;;;15.50;93.60;;;;;;4842083;29;20077;-84
2022/04/20 09:02:19;;;;;;;4.20;1.60;;;15.60;92.00;;;;;;4825460;29;20054;-84
2022/04/20 09:04:46;;;;;;;4.18;1.60;;;15.60;91.70;;;;;;4825543;29;20514;-82
2022/04/20 09:07:14;;;;;;;3.13;1.70;;;16.00;91.10;;;;;;4842145;29;20133;-82
2022/04/20 09:09:41;;;;;;;5.38;1.50;;;16.00;90.90;;;;;;4825260;29;20054;-82
2022/04/20 09:12:14;;;;;;;5.32;1.50;;;16.00;88.90;;;;;;4841716;29;20124;-84
2022/04/20 09:17:45;;;;;;;2.20;1.17;;;16.10;85.50;;;;;;4816415;29;20522;-85
2022/04/20 09:20:21;;;;;;;4.88;1.48;;;16.20;83.90;;;;;;4807391;29;20057;-83
2022/04/20 09:23:14;;;;;;;2.53;1.20;;;16.50;87.00;;;;;;4807474;29;20081;-82
2022/04/20 09:25:52;;;;;;;3.45;1.35;;;16.30;82.20;;;;;;4826242;24;20030;-85
2022/04/20 09:28:42;;;;;;;3.42;1.60;;;16.50;80.00;;;;;;4843513;29;20061;-84
2022/04/20 09:31:13;;;;;;;6.78;1.50;;;16.40;79.10;;;;;;4827956;29;20053;-82
2022/04/20 09:33:50;;;;;;;3.33;1.23;;;16.70;82.30;;;;;;4860418;29;20053;-81
2022/04/20 09:36:55;;;;;;;3.00;1.38;;;16.80;78.60;;;;;;4859675;29;20124;-83
2022/04/20 09:39:33;;;;;;;3.78;1.80;;;17.00;80.30;;;;;;4868318;29;20056;-83
2022/04/20 09:42:09;;;;;;;6.50;1.60;;;17.10;75.50;;;;;;4877518;29;20755;-79
2022/04/20 09:45:11;;;;;;;5.70;2.10;;;17.30;78.80;;;;;;4878282;29;20035;-82
2022/04/20 09:50:27;;;;;;;2.70;1.30;;;17.40;75.80;;;;;;4861160;29;20056;-84
2022/04/20 09:53:02;;;;;;;2.20;1.05;;;17.50;73.10;;;;;;4861782;29;20416;-82
2022/04/20 09:55:28;;;;;;;;;;;17.50;73.70;;;;;;4861472;29;20053;-86
2022/04/20 09:58:17;;;;;;;1.90;0.90;;;17.60;72.80;;;;;;4844529;29;20392;-87
2022/04/20 10:00:54;;;;;;;4.90;1.08;;;17.60;68.90;;;;;;4855860;29;20149;-81
2022/04/20 10:03:31;;;;;;;5.18;1.30;;;17.80;70.50;;;;;;4838610;29;20056;-82
2022/04/20 10:05:58;;;;;;;2.92;1.48;;;17.70;67.10;;;;;;4858649;29;20818;-82
2022/04/20 10:08:24;;;;;;;3.28;1.23;;;18.10;70.20;;;;;;4842870;29;20393;-83
2022/04/20 10:10:52;;;;;;;2.85;1.20;;;18.10;70.10;;;;;;4827672;29;20049;-83
2022/04/20 10:13:45;;;;;;;4.40;1.30;;;18.10;67.80;;;;;;4828619;29;20501;-83
2022/04/20 10:23:32;;;;;;;2.22;1.00;;;18.50;65.20;;;;;;4877709;29;20092;-84
2022/04/20 10:27:11;;;;;;;1.85;1.00;;;18.70;64.60;;;;;;4877164;29;20540;-85
2022/04/20 10:30:12;;;;;;;2.92;1.02;;;18.50;62.70;;;;;;4852983;29;20568;-81
2022/04/20 10:33:11;;;;;;;2.53;1.00;;;18.50;63.30;;;;;;4878149;29;20056;-84
2022/04/20 10:35:56;;;;;;;3.28;1.38;;;18.70;62.60;;;;;;4878133;29;20045;-84
2022/04/20 10:38:23;;;;;;;2.67;1.13;;;18.70;61.90;;;;;;4876093;29;20049;-89
2022/04/20 10:41:18;;;;;;;2.58;1.23;;;18.70;62.20;;;;;;4877725;29;20057;-84
2022/04/20 10:43:44;;;;;;;1.92;1.00;;;18.50;60.90;;;;;;4877541;29;20060;-83
2022/04/20 10:46:20;;;;;;;2.72;1.35;;;18.60;62.10;;;;;;4860735;29;20505;-84
2022/04/20 10:49:16;;;;;;;8.18;1.50;;;18.70;62.40;;;;;;4859785;29;20098;-83
2022/04/20 10:51:42;;;;;;;;;;;18.80;60.30;;;;;;4809077;29;20060;-83
2022/04/20 10:54:18;;;;;;;2.88;1.38;;;18.90;60.80;;;;;;4823807;29;19924;-86
2022/04/20 10:57:09;;;;;;;5.47;1.48;;;19.00;60.80;;;;;;4840418;29;20057;-85
2022/04/20 10:59:35;;;;;;;2.40;1.20;;;19.20;63.60;;;;;;4841785;29;20111;-81
2022/04/20 11:02:04;;;;;;;3.13;1.40;;;19.40;62.40;;;;;;4859028;29;20109;-82
2022/04/20 11:04:40;;;;;;;3.35;1.30;;;19.40;62.60;;;;;;4857078;29;20052;-81
2022/04/20 11:07:09;;;;;;;2.60;1.20;;;19.50;62.40;;;;;;4842468;29;20104;-81
2022/04/20 11:09:48;;;;;;;3.47;1.02;;;19.70;63.80;;;;;;4861167;29;20056;-79
2022/04/20 11:18:38;;;;;;;2.88;1.20;;;19.70;59.70;;;;;;4858076;29;20057;-81
2022/04/20 11:21:04;;;;;;;3.00;1.42;;;19.80;61.80;;;;;;4880182;29;20045;-81
2022/04/20 11:24:45;;;;;;;4.88;1.40;;;19.80;60.80;;;;;;4878297;29;20056;-81
2022/04/20 11:30:44;;;;;;;2.88;1.20;;;19.80;59.30;;;;;;4926156;24;20202;-83
2022/04/20 11:33:10;;;;;;;3.42;1.02;;;19.90;57.20;;;;;;4788519;29;20070;-88
2022/04/20 11:35:56;;;;;;;3.83;1.00;;;20.00;57.70;;;;;;4805063;29;20292;-90
2022/04/20 11:38:51;;;;;;;2.65;1.00;;;19.80;58.30;;;;;;4822288;29;20102;-90
2022/04/20 11:41:18;;;;;;;2.55;1.25;;;19.80;55.90;;;;;;4768927;29;20066;-85
2022/04/20 11:43:45;;;;;;;1.73;1.00;;;20.00;58.90;;;;;;4875777;24;20182;-84
2022/04/20 11:46:21;;;;;;;3.83;0.82;;;20.10;57.80;;;;;;4841261;29;20053;-90
2022/04/20 11:49:06;;;;;;;2.17;0.95;;;20.10;57.30;;;;;;4841590;29;20118;-84
2022/04/20 11:51:32;;;;;;;2.20;0.98;;;20.20;56.60;;;;;;4830616;24;20062;-88
2022/04/20 11:56:41;;;;;;;2.80;1.05;;;20.40;56.70;;;;;;3937281;27;20058;-91
2022/04/20 11:59:10;;;;;;;3.00;1.10;;;20.50;57.90;;;;;;4826637;29;20122;-87
2022/04/20 12:01:39;;;;;;;2.00;1.00;;;20.30;56.50;;;;;;4827142;29;20057;-82
2022/04/20 12:04:16;;;;;;;2.30;0.90;;;20.50;56.10;;;;;;4844626;29;20058;-81
2022/04/20 12:06:59;;;;;;;3.05;0.88;;;20.40;56.10;;;;;;4843208;29;20427;-82
2022/04/20 12:09:25;;;;;;;1.17;0.60;;;20.60;55.70;;;;;;4842778;29;20522;-82
2022/04/20 12:12:02;;;;;;;3.20;0.90;;;20.70;57.80;;;;;;4843039;29;20065;-82
2022/04/20 12:14:32;;;;;;;4.20;1.00;;;20.70;56.50;;;;;;4827251;29;20068;-82
2022/04/20 12:17:00;;;;;;;3.72;1.00;;;20.80;57.10;;;;;;4842770;29;20736;-83
2022/04/20 12:19:27;;;;;;;2.75;1.20;;;21.00;56.30;;;;;;4845039;29;20138;-81
2022/04/20 12:21:52;;;;;;;2.65;0.90;;;21.00;56.20;;;;;;4857247;29;20489;-82
2022/04/20 12:24:24;;;;;;;1.48;0.77;;;20.90;55.40;;;;;;4844347;29;20165;-81
2022/04/20 12:26:51;;;;;;;2.65;0.60;;;21.00;55.40;;;;;;4861257;29;20105;-80
2022/04/20 12:29:23;;;;;;;3.25;0.95;;;20.90;55.60;;;;;;4861204;29;20045;-78
2022/04/20 12:31:54;;;;;;;2.20;0.80;;;20.80;55.60;;;;;;4841269;29;20065;-81
2022/04/20 12:34:21;;;;;;;7.40;0.85;;;20.80;56.00;;;;;;4842835;29;20178;-81
2022/04/20 12:37:08;;;;;;;15.05;2.03;;;20.90;55.80;;;;;;4843051;29;20042;-80
2022/04/20 12:39:42;;;;;;;2.50;1.00;;;20.80;54.30;;;;;;4842574;29;20054;-79
2022/04/20 12:42:11;;;;;;;2.50;0.90;;;20.60;55.50;;;;;;4832879;29;20042;-78
2022/04/20 12:44:51;;;;;;;1.58;0.60;;;20.80;56.40;;;;;;4841644;29;20054;-79
2022/04/20 12:47:17;;;;;;;4.35;1.00;;;21.00;56.30;;;;;;4818701;29;20049;-82
2022/04/20 12:49:48;;;;;;;1.80;0.73;;;20.90;55.20;;;;;;4819312;29;20970;-81
2022/04/20 12:52:16;;;;;;;1.33;0.70;;;20.80;54.50;;;;;;4817814;29;20134;-79
2022/04/20 12:54:53;;;;;;;1.27;0.80;;;21.00;55.30;;;;;;4812958;29;20131;-79
2022/04/20 13:03:04;;;;;;;4.80;0.98;;;21.30;55.30;;;;;;4837839;29;20095;-78
2022/04/20 13:05:32;;;;;;;3.20;0.80;;;21.00;54.90;;;;;;4836352;29;20537;-81
2022/04/20 13:07:58;;;;;;;2.30;0.65;;;20.70;54.60;;;;;;4844522;29;20049;-82
2022/04/20 13:10:25;;;;;;;1.77;0.73;;;20.80;55.00;;;;;;4815364;29;20391;-82
2022/04/20 13:12:54;;;;;;;1.55;0.80;;;20.70;55.10;;;;;;4834520;29;20049;-80
2022/04/20 13:15:22;;;;;;;2.13;0.80;;;20.70;55.10;;;;;;4823138;29;20034;-80
2022/04/20 13:17:48;;;;;;;1.67;0.85;;;20.70;56.70;;;;;;4836904;29;20057;-79
2022/04/20 13:20:16;;;;;;;2.90;0.80;;;20.80;55.00;;;;;;4832515;29;20056;-82
2022/04/20 13:22:42;;;;;;;0.82;0.50;;;20.90;56.10;;;;;;4831474;29;20053;-81
2022/04/20 13:27:55;;;;;;;;;;;20.80;56.10;;;;;;4816064;29;20049;-80
2022/04/20 13:30:22;;;;;;;2.03;0.90;;;21.00;56.00;;;;;;4834591;29;19932;-82
2022/04/20 13:32:48;;;;;;;1.92;0.80;;;21.10;56.10;;;;;;4836952;29;20046;-79
2022/04/20 13:35:14;;;;;;;2.15;0.80;;;21.20;55.20;;;;;;4835877;29;20498;-79
2022/04/20 13:37:40;;;;;;;5.47;1.15;;;21.20;55.20;;;;;;4822155;29;20049;-83
2022/04/20 13:40:07;;;;;;;3.13;1.10;;;21.10;56.00;;;;;;4824157;29;20073;-81
2022/04/20 13:42:33;;;;;;;2.35;0.90;;;21.00;55.70;;;;;;4818033;29;20061;-80
2022/04/20 13:44:58;;;;;;;1.48;0.82;;;20.90;54.90;;;;;;4821869;29;20496;-80
2022/04/20 13:47:24;;;;;;;2.13;0.80;;;21.10;55.80;;;;;;4834126;29;20049;-80
2022/04/20 13:49:49;;;;;;;2.65;1.10;;;21.00;54.70;;;;;;4840020;29;20049;-83
2022/04/20 13:52:15;;;;;;;5.30;1.08;;;21.00;55.50;;;;;;4834366;29;20054;-80
2022/04/20 13:54:44;;;;;;;3.38;1.50;;;21.10;57.20;;;;;;4838757;29;20042;-80
2022/04/20 13:57:12;;;;;;;5.18;1.90;;;21.20;59.40;;;;;;4837807;29;20046;-81
2022/04/20 13:59:38;;;;;;;5.22;1.80;;;21.10;61.30;;;;;;4838007;29;20406;-82
2022/04/20 14:02:03;;;;;;;5.82;1.92;;;21.20;61.60;;;;;;4838027;29;20160;-82
2022/04/20 14:04:29;;;;;;;5.00;2.30;;;21.40;60.70;;;;;;4836226;29;20057;-80
2022/04/20 14:06:55;;;;;;;5.68;2.22;;;21.30;61.10;;;;;;4837256;29;20057;-80
2022/04/20 14:09:20;;;;;;;7.07;2.30;;;21.60;62.00;;;;;;4836879;29;20050;-81
2022/04/20 14:11:46;;;;;;;5.03;2.42;;;21.50;61.80;;;;;;4832816;29;20038;-82
2022/04/20 14:14:11;;;;;;;3.80;2.65;;;21.40;62.10;;;;;;4832951;29;20054;-82
2022/04/20 14:16:41;;;;;;;6.45;2.40;;;21.20;62.10;;;;;;4837559;29;20042;-81
2022/04/20 14:19:08;;;;;;;10.23;3.08;;;21.30;63.50;;;;;;4821535;29;20057;-84
2022/04/20 14:21:33;;;;;;;5.45;2.40;;;21.50;62.60;;;;;;4817658;29;20150;-79
2022/04/20 14:24:03;;;;;;;7.10;2.75;;;21.60;62.90;;;;;;4837895;29;20041;-77
2022/04/20 14:32:17;;;;;;;6.60;2.08;;;21.70;64.10;;;;;;4828333;29;20053;-86
2022/04/20 14:34:49;;;;;;;4.05;2.65;;;21.40;63.30;;;;;;4817525;29;20054;-83
2022/04/20 14:37:18;;;;;;;7.68;2.90;;;21.10;62.60;;;;;;4830811;29;20054;-78
2022/04/20 14:39:45;;;;;;;5.60;3.28;;;21.20;63.10;;;;;;4829259;29;20053;-79
2022/04/20 14:42:11;;;;;;;7.82;3.72;;;21.00;63.30;;;;;;4826521;29;20129;-78
2022/04/20 14:44:38;;;;;;;6.47;3.40;;;21.10;63.70;;;;;;4834047;29;20178;-77
2022/04/20 14:47:08;;;;;;;7.20;3.08;;;20.80;63.80;;;;;;4838107;29;20061;-79
2022/04/20 14:49:38;;;;;;;5.65;3.10;;;20.80;64.30;;;;;;4832088;29;20390;-83
2022/04/20 14:52:16;;;;;;;7.78;3.50;;;21.00;65.20;;;;;;4823657;29;20058;-80
2022/04/20 14:54:43;;;;;;;5.47;3.63;;;21.00;64.20;;;;;;4822615;29;20057;-81
2022/04/20 14:57:10;;;;;;;4.47;3.47;;;20.70;65.40;;;;;;4821938;29;20062;-78
2022/04/20 14:59:36;;;;;;;6.40;4.03;;;20.70;65.60;;;;;;4824768;29;20050;-79
2022/04/20 15:02:03;;;;;;;6.43;3.47;;;20.90;66.20;;;;;;4809034;29;20746;-78
2022/04/20 15:04:31;;;;;;;10.02;4.10;;;20.80;65.10;;;;;;4823226;29;20136;-78
2022/04/20 15:06:57;;;;;;;7.70;3.97;;;20.80;65.40;;;;;;4824814;29;20791;-80
2022/04/20 15:09:26;;;;;;;9.15;4.25;;;20.80;66.70;;;;;;4812882;29;20152;-80
2022/04/20 15:11:53;;;;;;;5.57;3.65;;;20.90;66.30;;;;;;4830382;29;20499;-78
2022/04/20 15:14:19;;;;;;;6.10;3.92;;;20.60;65.50;;;;;;4860631;24;20056;-82
2022/04/20 15:16:45;;;;;;;14.57;3.83;;;20.60;65.30;;;;;;4859087;29;20079;-79
2022/04/20 15:19:12;;;;;;;8.75;4.30;;;20.60;65.90;;;;;;4858745;29;20049;-79
2022/04/20 15:21:38;;;;;;;6.32;4.50;;;20.50;65.90;;;;;;4848995;29;20696;-79
2022/04/20 15:24:05;;;;;;;6.15;4.18;;;20.30;65.70;;;;;;4877196;29;20048;-81
2022/04/20 15:26:30;;;;;;;6.63;4.30;;;20.40;66.30;;;;;;4877329;29;20113;-80
2022/04/20 15:28:56;;;;;;;6.25;4.28;;;20.30;67.00;;;;;;4860414;29;20458;-80
2022/04/20 15:31:22;;;;;;;8.38;4.20;;;20.30;67.30;;;;;;4876293;29;20061;-85
2022/04/20 15:33:49;;;;;;;9.45;4.00;;;20.40;67.70;;;;;;4859591;29;20049;-80
2022/04/20 15:36:16;;;;;;;9.75;3.83;;;20.40;67.90;;;;;;4877127;29;20523;-81
2022/04/20 15:38:42;;;;;;;7.53;4.40;;;20.20;67.70;;;;;;4864218;29;20058;-79
2022/04/20 15:41:10;;;;;;;5.93;3.88;;;20.20;67.30;;;;;;4877245;29;20093;-80
2022/04/20 15:43:37;;;;;;;11.93;4.35;;;20.10;67.80;;;;;;4854217;29;20098;-81
2022/04/20 15:46:03;;;;;;;10.95;4.60;;;20.20;67.80;;;;;;4863621;29;20097;-80
2022/04/20 15:48:29;;;;;;;7.18;4.63;;;20.00;68.00;;;;;;4876324;29;20045;-79
2022/04/20 15:50:56;;;;;;;6.90;4.95;;;19.80;68.20;;;;;;4876598;29;20068;-79
2022/04/20 15:53:22;;;;;;;8.27;4.45;;;19.70;68.50;;;;;;4859746;29;20061;-81
2022/04/20 16:01:17;;;;;;;8.05;4.22;;;19.80;68.60;;;;;;4843933;29;20060;-81
2022/04/20 16:03:42;;;;;;;9.82;4.50;;;19.90;70.10;;;;;;4840870;29;20053;-80
2022/04/20 16:06:09;;;;;;;8.07;4.05;;;19.90;69.20;;;;;;4841381;29;20918;-81
2022/04/20 16:08:35;;;;;;;7.32;4.32;;;20.00;69.80;;;;;;4841662;29;20060;-82
2022/04/20 16:11:00;;;;;;;6.57;3.72;;;19.70;69.30;;;;;;4842192;29;20170;-80
2022/04/20 16:13:26;;;;;;;10.30;4.40;;;19.50;69.80;;;;;;4857707;29;20571;-81
2022/04/20 16:15:52;;;;;;;5.70;3.80;;;19.60;70.30;;;;;;4857991;29;20049;-81
2022/04/20 16:18:18;;;;;;;7.55;4.28;;;19.60;70.80;;;;;;4857499;29;20086;-79
2022/04/20 16:20:45;;;;;;;8.25;3.92;;;19.40;70.30;;;;;;4858800;29;20081;-79
2022/04/20 16:23:11;;;;;;;6.50;4.00;;;19.30;70.80;;;;;;4858145;29;20208;-82
2022/04/20 16:25:37;;;;;;;8.38;3.90;;;19.20;70.90;;;;;;4858930;29;20053;-80
2022/04/20 16:28:04;;;;;;;8.48;3.83;;;19.20;71.50;;;;;;4857916;29;20382;-80
2022/04/20 16:30:32;;;;;;;6.15;4.43;;;19.20;71.00;;;;;;4857903;29;20065;-81
2022/04/20 16:32:59;;;;;;;8.30;3.88;;;19.20;70.90;;;;;;4855238;29;20061;-81
2022/04/20 16:35:25;;;;;;;5.03;3.65;;;19.00;71.60;;;;;;4859285;29;20045;-83
2022/04/20 16:37:51;;;;;;;7.72;3.50;;;19.20;71.80;;;;;;4876552;29;20052;-81
2022/04/20 16:40:17;;;;;;;7.03;3.75;;;19.00;72.00;;;;;;4875508;29;20057;-82
2022/04/20 16:42:43;;;;;;;12.63;4.47;;;19.50;71.90;;;;;;4874135;29;20536;-81
2022/04/20 16:45:13;;;;;;;4.90;3.70;;;19.30;73.00;;;;;;4875409;29;20096;-86
2022/04/20 16:47:42;;;;;;;6.78;4.07;;;19.50;72.20;;;;;;4878007;29;20572;-82
2022/04/20 16:50:09;;;;;;;6.10;3.72;;;19.30;72.20;;;;;;4860475;29;20053;-81
2022/04/20 16:52:39;;;;;;;7.95;3.88;;;18.80;72.40;;;;;;4879660;29;20056;-80
2022/04/20 16:55:06;;;;;;;11.13;3.97;;;18.90;72.40;;;;;;4860970;29;20132;-78
2022/04/20 16:57:36;;;;;;;12.68;4.35;;;18.50;72.20;;;;;;4879856;29;20094;-84
2022/04/20 17:00:08;;;;;;;6.43;3.80;;;18.50;72.20;;;;;;4861243;29;20117;-85
2022/04/20 17:02:35;;;;;;;12.55;3.88;;;18.60;73.10;;;;;;4862814;29;20056;-86
2022/04/20 17:05:01;;;;;;;8.25;3.85;;;19.00;73.20;;;;;;4877921;29;20041;-80
2022/04/20 17:07:26;;;;;;;8.93;4.00;;;18.50;73.20;;;;;;4879058;29;20378;-88
2022/04/20 17:09:52;;;;;;;6.55;3.70;;;18.30;72.70;;;;;;4862551;29;20068;-87
2022/04/20 17:12:18;;;;;;;8.27;4.10;;;18.80;72.90;;;;;;4847255;29;20061;-87
2022/04/20 17:14:44;;;;;;;5.70;3.95;;;18.10;72.70;;;;;;4861494;29;20088;-85
2022/04/20 17:17:09;;;;;;;7.97;4.25;;;18.10;73.00;;;;;;4862283;29;20458;-82
2022/04/20 17:19:35;;;;;;;6.30;4.28;;;18.00;73.30;;;;;;4862769;29;20136;-78
2022/04/20 17:27:35;;;;;;;5.55;3.33;;;17.40;73.70;;;;;;4860664;29;20088;-83
2022/04/20 17:30:01;;;;;;;6.93;3.85;;;17.50;74.10;;;;;;4860171;29;20154;-80
2022/04/20 17:32:27;;;;;;;9.25;4.40;;;17.70;74.30;;;;;;4860582;29;20052;-88
2022/04/20 17:36:36;;;;;;;6.55;4.22;;;17.50;73.70;;;;;;4861215;29;20053;-81
2022/04/20 17:37:38;;;;;;;7.50;4.10;;;17.60;73.90;;;;;;4860226;29;20061;-86
2022/04/20 17:40:05;;;;;;;8.48;4.38;;;17.20;74.20;;;;;;4843808;29;20053;-86
2022/04/20 17:42:30;;;;;;;8.95;4.60;;;17.10;74.60;;;;;;4860390;29;20424;-83
2022/04/20 17:44:56;;;;;;;9.55;4.00;;;16.90;74.90;;;;;;4860167;29;20053;-79
2022/04/20 17:47:22;;;;;;;7.65;4.55;;;16.80;75.20;;;;;;4860809;29;20479;-80
2022/04/20 17:49:47;;;;;;;6.65;4.25;;;17.10;75.50;;;;;;4860122;29;20458;-79
2022/04/20 17:52:13;;;;;;;8.57;4.00;;;16.70;75.30;;;;;;4843218;29;20090;-79
2022/04/20 17:54:38;;;;;;;7.85;4.88;;;16.60;75.70;;;;;;4859643;29;20493;-79
2022/04/20 17:57:04;;;;;;;7.65;4.18;;;16.60;76.10;;;;;;4871577;29;20373;-78
2022/04/20 17:59:30;;;;;;;11.52;5.22;;;16.30;76.40;;;;;;4877687;29;20055;-84
2022/04/20 18:01:56;;;;;;;10.38;4.50;;;16.20;76.80;;;;;;4868378;29;20064;-79
2022/04/20 18:04:22;;;;;;;8.63;3.90;;;16.20;77.20;;;;;;4878287;29;20140;-83
2022/04/20 18:06:48;;;;;;;8.07;4.13;;;16.10;77.30;;;;;;4861882;29;20127;-81
2022/04/20 18:09:15;;;;;;;11.68;4.20;;;15.80;77.90;;;;;;4873225;29;20045;-85
2022/04/20 18:11:42;;;;;;;7.63;3.63;;;16.10;78.10;;;;;;4869503;29;20515;-79
2022/04/20 18:14:08;;;;;;;8.63;3.83;;;15.50;77.90;;;;;;4860671;29;20117;-80
2022/04/20 18:16:35;;;;;;;5.50;3.28;;;15.30;78.70;;;;;;4860764;29;20413;-80
2022/04/20 18:19:01;;;;;;;5.93;3.42;;;15.10;80.00;;;;;;4861349;29;20512;-79
2022/04/20 18:21:27;;;;;;;6.53;3.05;;;15.00;80.50;;;;;;4878330;29;20119;-80
2022/04/20 18:23:53;;;;;;;6.10;3.05;;;14.90;80.70;;;;;;4878040;29;20548;-79
2022/04/20 18:26:19;;;;;;;6.43;3.17;;;14.60;81.30;;;;;;4856703;29;20053;-81
2022/04/20 18:28:45;;;;;;;5.07;2.92;;;14.40;83.40;;;;;;4859217;29;20076;-81
2022/04/20 18:31:11;;;;;;;5.57;2.70;;;14.20;83.50;;;;;;4851461;29;20055;-79
2022/04/20 18:33:38;;;;;;;5.97;2.88;;;14.10;84.80;;;;;;4845437;29;20052;-78
2022/04/20 18:36:04;;;;;;;7.90;2.72;;;13.80;86.80;;;;;;4860887;29;20136;-80
2022/04/20 18:38:30;;;;;;;8.73;2.70;;;13.70;87.80;;;;;;4860958;29;20139;-79
2022/04/20 18:40:58;;;;;;;5.43;2.80;;;13.50;89.80;;;;;;4860712;29;20118;-80
2022/04/20 18:43:24;;;;;;;4.80;2.83;;;13.30;90.60;;;;;;4877958;29;20049;-80
2022/04/20 18:45:50;;;;;;;8.27;2.75;;;13.30;91.00;;;;;;4861141;29;20131;-81
2022/04/20 18:48:16;;;;;;;7.32;3.00;;;13.20;92.10;;;;;;4878087;29;20469;-84
2022/04/20 18:50:45;;;;;;;4.47;2.63;;;13.10;92.00;;;;;;4845970;29;20140;-81
2022/04/20 18:58:49;;;;;;;9.88;2.90;;;12.70;94.40;;;;;;4848846;29;20065;-80
2022/04/20 19:01:15;;;;;;;5.13;2.45;;;12.60;94.30;;;;;;4859878;29;20072;-82
2022/04/20 19:03:41;;;;;;;6.22;2.85;;;12.50;94.90;;;;;;4842948;29;20049;-83
2022/04/20 19:06:06;;;;;;;6.75;2.60;;;12.30;95.50;;;;;;4858233;29;20057;-79
2022/04/20 19:08:32;;;;;;;4.88;2.60;;;12.30;95.60;;;;;;4867413;29;20057;-80
2022/04/20 19:10:58;;;;;;;7.93;2.58;;;12.30;95.90;;;;;;4858447;29;20049;-80
2022/04/20 19:13:23;;;;;;;4.65;2.28;;;12.10;96.70;;;;;;4858310;29;20046;-81
2022/04/20 19:15:50;;;;;;;6.20;2.35;;;12.10;97.30;;;;;;4859050;29;20070;-79